createdAt,value
2022-10-24T00:02:41.306Z,4.68
2022-10-24T00:05:48.813Z,5.15
2022-10-24T00:08:51.338Z,6.18
2022-10-24T00:15:27.323Z,5.50
2022-10-24T00:18:29.550Z,6.40
2022-10-24T00:21:31.702Z,5.20
2022-10-24T00:24:34.111Z,5.40
2022-10-24T00:27:36.786Z,5.13
2022-10-24T00:30:38.981Z,6.43
2022-10-24T00:33:41.116Z,6.43
2022-10-24T00:36:43.897Z,5.38
2022-10-24T00:39:45.903Z,5.68
2022-10-24T00:42:48.994Z,5.03
2022-10-24T00:45:55.213Z,4.93
2022-10-24T00:48:57.453Z,6.13
2022-10-24T00:52:04.086Z,5.75
2022-10-24T00:55:06.787Z,5.20
2022-10-24T00:58:09.701Z,6.30
2022-10-24T01:01:14.054Z,4.88
2022-10-24T01:04:16.280Z,5.50
2022-10-24T01:07:23.807Z,5.78
2022-10-24T01:11:04.853Z,5.05
2022-10-24T01:14:12.141Z,4.90
2022-10-24T01:17:22.922Z,5.50
2022-10-24T01:20:37.317Z,6.00
2022-10-24T01:24:05.340Z,4.82
2022-10-24T01:27:44.551Z,5.28
2022-10-24T01:31:03.160Z,4.95
2022-10-24T01:34:30.224Z,5.33
2022-10-24T01:37:34.951Z,4.53
2022-10-24T01:40:57.413Z,4.95
2022-10-24T01:44:09.973Z,4.38
2022-10-24T01:47:18.851Z,5.15
2022-10-24T01:50:24.025Z,4.75
2022-10-24T01:53:29.419Z,5.78
2022-10-24T01:56:31.357Z,4.25
2022-10-24T01:59:33.582Z,5.30
2022-10-24T02:02:43.640Z,6.03
2022-10-24T02:05:52.557Z,5.10
2022-10-24T02:08:58.783Z,4.50
2022-10-24T02:12:01.587Z,5.30
2022-10-24T02:15:11.330Z,6.00
2022-10-24T02:18:13.805Z,6.57
2022-10-24T02:21:36.394Z,5.28
2022-10-24T02:24:56.481Z,6.07
2022-10-24T02:28:18.397Z,5.90
2022-10-24T02:31:25.046Z,6.13
2022-10-24T02:34:32.351Z,6.00
2022-10-24T02:37:38.825Z,5.85
2022-10-24T02:40:44.933Z,5.25
2022-10-24T02:43:51.015Z,4.65
2022-10-24T02:49:59.443Z,4.95
2022-10-24T02:53:01.693Z,4.80
2022-10-24T02:56:04.426Z,4.88
2022-10-24T02:59:06.689Z,5.22
2022-10-24T03:02:09.305Z,4.68
2022-10-24T03:05:11.790Z,4.38
2022-10-24T03:08:14.475Z,4.97
2022-10-24T03:11:17.923Z,5.20
2022-10-24T03:14:20.250Z,5.03
2022-10-24T03:17:23.525Z,5.20
2022-10-24T03:20:25.862Z,5.22
2022-10-24T03:23:28.853Z,5.50
2022-10-24T03:26:30.916Z,6.50
2022-10-24T03:29:33.219Z,5.35
2022-10-24T03:32:35.916Z,6.20
2022-10-24T03:35:38.883Z,5.53
2022-10-24T03:38:41.139Z,5.20
2022-10-24T03:41:43.347Z,6.07
2022-10-24T03:44:45.503Z,5.13
2022-10-24T03:47:47.439Z,5.45
2022-10-24T03:50:49.437Z,5.78
2022-10-24T03:53:51.510Z,5.35
2022-10-24T03:56:53.878Z,5.97
2022-10-24T03:59:57.318Z,7.70
2022-10-24T04:02:59.492Z,8.75
2022-10-24T04:06:02.125Z,11.38
2022-10-24T04:09:07.492Z,10.75
2022-10-24T04:12:09.689Z,11.02
2022-10-24T04:15:11.855Z,11.65
2022-10-24T04:18:15.846Z,12.10
2022-10-24T04:21:21.592Z,13.57
2022-10-24T04:24:25.096Z,13.23
2022-10-24T04:27:27.445Z,12.20
2022-10-24T04:30:30.058Z,13.30
2022-10-24T04:33:32.188Z,13.10
2022-10-24T04:36:35.116Z,11.73
2022-10-24T04:39:37.402Z,11.95
2022-10-24T04:42:39.731Z,11.63
2022-10-24T04:45:41.811Z,11.52
2022-10-24T04:48:44.014Z,9.82
2022-10-24T04:51:47.418Z,10.88
2022-10-24T04:54:49.540Z,10.95
2022-10-24T04:57:52.960Z,11.27
2022-10-24T05:00:55.932Z,12.77
2022-10-24T05:03:58.112Z,12.50
2022-10-24T05:07:00.274Z,13.35
2022-10-24T05:10:02.357Z,12.30
2022-10-24T05:13:05.878Z,12.05
2022-10-24T05:16:08.123Z,12.48
2022-10-24T05:19:10.238Z,12.38
2022-10-24T05:22:12.363Z,13.13
2022-10-24T05:25:14.508Z,12.57
2022-10-24T05:28:16.596Z,11.32
2022-10-24T05:31:18.791Z,11.55
2022-10-24T05:34:20.873Z,10.18
2022-10-24T05:37:23.699Z,10.23
2022-10-24T05:40:26.824Z,11.35
2022-10-24T05:43:28.869Z,11.40
2022-10-24T05:46:30.827Z,9.60
2022-10-24T05:49:34.077Z,10.15
2022-10-24T05:52:36.722Z,10.55
2022-10-24T05:55:40.428Z,6.88
2022-10-24T05:58:42.563Z,6.60
2022-10-24T06:01:44.799Z,6.28
2022-10-24T06:04:48.280Z,6.80
2022-10-24T06:07:50.462Z,6.50
2022-10-24T06:10:53.823Z,7.15
2022-10-24T06:13:56.959Z,5.88
2022-10-24T06:16:59.232Z,7.32
2022-10-24T06:20:01.322Z,5.35
2022-10-24T06:23:03.584Z,8.90
2022-10-24T06:26:11.099Z,7.10
2022-10-24T06:29:13.252Z,7.15
2022-10-24T06:32:17.530Z,6.72
2022-10-24T06:35:19.802Z,6.20
2022-10-24T06:38:21.822Z,6.80
2022-10-24T06:41:26.074Z,6.80
2022-10-24T06:44:28.560Z,9.90
2022-10-24T06:47:33.380Z,8.82
2022-10-24T06:50:36.985Z,10.68
2022-10-24T06:53:41.680Z,9.40
2022-10-24T06:56:43.758Z,9.65
2022-10-24T06:59:46.438Z,11.07
2022-10-24T07:02:48.744Z,11.90
2022-10-24T07:05:56.991Z,10.95
2022-10-24T07:09:01.004Z,10.90
2022-10-24T07:12:03.061Z,9.63
2022-10-24T07:15:08.658Z,11.10
2022-10-24T07:18:14.951Z,9.85
2022-10-24T07:21:28.874Z,11.55
2022-10-24T07:24:30.810Z,10.60
2022-10-24T07:27:34.130Z,12.60
2022-10-24T07:30:36.206Z,11.52
2022-10-24T07:33:40.047Z,8.98
2022-10-24T07:36:43.938Z,8.98
2022-10-24T07:39:47.622Z,8.40
2022-10-24T07:42:49.756Z,9.23
2022-10-24T07:45:52.329Z,9.73
2022-10-24T07:48:56.238Z,9.88
2022-10-24T07:51:58.330Z,10.27
2022-10-24T07:55:00.839Z,10.05
2022-10-24T07:58:02.965Z,9.45
2022-10-24T08:01:08.781Z,8.50
2022-10-24T08:04:12.363Z,9.07
2022-10-24T08:07:14.458Z,9.43
2022-10-24T08:10:18.598Z,11.27
2022-10-24T08:13:20.511Z,10.57
2022-10-24T08:16:26.290Z,11.48
2022-10-24T08:19:28.720Z,10.40
2022-10-24T08:22:31.131Z,10.23
2022-10-24T08:25:33.520Z,10.45
2022-10-24T08:28:37.022Z,9.65
2022-10-24T08:31:39.272Z,9.85
2022-10-24T08:34:41.396Z,9.15
2022-10-24T08:37:43.894Z,8.98
2022-10-24T08:40:49.417Z,8.43
2022-10-24T08:43:53.662Z,8.75
2022-10-24T08:47:10.077Z,8.05
2022-10-24T08:50:30.710Z,8.25
2022-10-24T08:53:34.432Z,8.75
2022-10-24T08:56:36.640Z,7.88
2022-10-24T08:59:39.749Z,8.07
2022-10-24T09:02:45.205Z,8.88
2022-10-24T09:05:51.826Z,7.47
2022-10-24T09:09:00.032Z,8.02
2022-10-24T09:12:21.612Z,7.25
2022-10-24T09:15:29.456Z,8.18
2022-10-24T09:18:39.911Z,8.00
2022-10-24T09:21:43.555Z,8.43
2022-10-24T09:24:48.626Z,6.55
2022-10-24T09:27:52.250Z,7.72
2022-10-24T09:30:54.280Z,7.38
2022-10-24T09:34:00.614Z,7.78
2022-10-24T09:37:02.656Z,9.57
2022-10-24T09:40:12.077Z,7.47
2022-10-24T09:43:17.154Z,7.40
2022-10-24T09:46:26.529Z,6.75
2022-10-24T09:49:41.510Z,8.68
2022-10-24T09:52:53.514Z,6.05
2022-10-24T09:56:03.027Z,4.70
2022-10-24T09:59:44.463Z,6.47
2022-10-24T10:03:07.372Z,5.43
2022-10-24T10:06:21.016Z,5.15
2022-10-24T10:09:35.478Z,5.93
2022-10-24T10:12:44.515Z,4.53
2022-10-24T10:15:50.657Z,4.72
2022-10-24T10:19:15.475Z,4.53
2022-10-24T10:22:32.987Z,5.30
2022-10-24T10:25:35.022Z,4.93
2022-10-24T10:28:43.536Z,3.97
2022-10-24T10:34:56.930Z,4.13
2022-10-24T10:38:11.864Z,3.88
2022-10-24T10:41:38.834Z,4.20
2022-10-24T10:44:56.369Z,2.92
2022-10-24T10:48:07.643Z,3.25
2022-10-24T10:51:27.562Z,3.10
2022-10-24T10:54:37.415Z,4.00
2022-10-24T10:57:59.064Z,2.53
2022-10-24T11:01:16.820Z,2.42
2022-10-24T11:04:44.762Z,3.72
2022-10-24T11:07:47.040Z,3.00
2022-10-24T11:10:57.942Z,3.00
2022-10-24T11:14:27.620Z,2.67
2022-10-24T11:20:55.991Z,2.65
2022-10-24T11:24:09.847Z,2.40
2022-10-24T11:27:26.626Z,2.25
2022-10-24T11:30:58.905Z,3.60
2022-10-24T11:34:34.744Z,2.63
2022-10-24T11:37:42.131Z,2.47
2022-10-24T11:40:47.058Z,2.50
2022-10-24T11:43:55.054Z,2.90
2022-10-24T11:47:10.591Z,2.78
2022-10-24T11:50:24.721Z,2.53
2022-10-24T11:53:34.615Z,3.40
2022-10-24T11:56:43.131Z,2.80
2022-10-24T12:02:53.045Z,2.08
2022-10-24T12:06:16.547Z,1.95
2022-10-24T12:09:33.617Z,2.05
2022-10-24T12:13:14.238Z,2.75
2022-10-24T12:16:31.707Z,3.15
2022-10-24T12:19:34.215Z,3.30
2022-10-24T12:22:40.577Z,2.28
2022-10-24T12:25:47.297Z,2.95
2022-10-24T12:28:56.108Z,1.98
2022-10-24T12:31:58.716Z,2.30
2022-10-24T12:35:29.004Z,2.45
2022-10-24T12:38:28.196Z,2.30
2022-10-24T12:41:33.273Z,2.85
2022-10-24T12:44:41.377Z,3.08
2022-10-24T12:48:04.513Z,4.30
2022-10-24T12:51:26.582Z,2.33
2022-10-24T12:54:45.875Z,1.90
2022-10-24T12:57:48.082Z,1.73
2022-10-24T13:01:04.996Z,2.53
2022-10-24T13:04:34.448Z,2.10
2022-10-24T13:07:57.746Z,2.17
2022-10-24T13:11:37.373Z,2.20
2022-10-24T13:15:07.476Z,2.28
2022-10-24T13:18:24.789Z,2.80
2022-10-24T13:21:32.729Z,2.88
2022-10-24T13:24:40.115Z,2.78
2022-10-24T13:27:42.292Z,2.90
2022-10-24T13:30:47.359Z,2.28
2022-10-24T13:33:53.427Z,2.83
2022-10-24T13:37:02.860Z,3.05
2022-10-24T13:40:20.538Z,3.25
2022-10-24T13:43:22.729Z,2.83
2022-10-24T13:46:59.335Z,2.67
2022-10-24T13:50:06.930Z,2.63
2022-10-24T13:53:30.320Z,2.78
2022-10-24T13:56:38.451Z,2.42
2022-10-24T13:59:40.339Z,3.37
2022-10-24T14:02:43.038Z,2.70
2022-10-24T14:05:49.926Z,2.45
2022-10-24T14:09:03.943Z,2.50
2022-10-24T14:12:17.745Z,3.22
2022-10-24T14:15:22.788Z,2.53
2022-10-24T14:18:24.941Z,3.25
2022-10-24T14:21:26.943Z,2.88
2022-10-24T14:24:32.081Z,3.53
2022-10-24T14:27:35.471Z,2.75
2022-10-24T14:30:37.499Z,3.22
2022-10-24T14:33:45.749Z,4.72
2022-10-24T14:36:48.112Z,4.53
2022-10-24T14:39:50.478Z,6.38
2022-10-24T14:42:53.746Z,6.03
2022-10-24T14:46:17.658Z,7.10
2022-10-24T14:49:26.367Z,9.65
2022-10-24T14:52:36.917Z,10.30
2022-10-24T14:55:39.609Z,12.52
2022-10-24T14:58:41.705Z,9.32
2022-10-24T15:01:53.909Z,6.82
2022-10-24T15:05:16.137Z,7.95
2022-10-24T15:08:22.758Z,7.60
2022-10-24T15:11:29.193Z,8.23
2022-10-24T15:14:40.507Z,7.10
2022-10-24T15:17:45.522Z,7.38
2022-10-24T15:20:51.069Z,8.60
2022-10-24T15:24:00.987Z,6.82
2022-10-24T15:27:11.616Z,8.20
2022-10-24T15:30:23.346Z,8.48
2022-10-24T15:33:25.414Z,12.80
2022-10-24T15:36:31.604Z,9.75
2022-10-24T15:39:34.015Z,9.23
2022-10-24T15:42:36.032Z,10.73
2022-10-24T15:45:38.373Z,9.68
2022-10-24T15:48:41.730Z,8.50
2022-10-24T15:51:50.898Z,8.50
2022-10-24T15:55:02.663Z,9.10
2022-10-24T15:58:11.916Z,9.60
2022-10-24T16:01:23.960Z,10.25
2022-10-24T16:04:30.417Z,11.57
2022-10-24T16:07:32.833Z,14.27
2022-10-24T16:10:38.202Z,12.75
2022-10-24T16:13:43.105Z,10.85
2022-10-24T16:16:45.570Z,12.30
2022-10-24T16:19:47.750Z,13.60
2022-10-24T16:22:53.321Z,12.82
2022-10-24T16:25:56.217Z,23.73
2022-10-24T16:29:01.118Z,13.48
2022-10-24T16:32:08.331Z,12.15
2022-10-24T16:35:15.970Z,14.77
2022-10-24T16:38:21.504Z,13.85
2022-10-24T16:41:26.496Z,14.00
2022-10-24T16:44:29.241Z,14.02
2022-10-24T16:47:32.816Z,12.00
2022-10-24T16:50:35.275Z,15.77
2022-10-24T16:53:37.425Z,14.05
2022-10-24T16:56:39.515Z,15.40
2022-10-24T16:59:58.529Z,14.52
2022-10-24T17:06:03.695Z,13.05
2022-10-24T17:09:05.722Z,14.30
2022-10-24T17:12:08.908Z,16.42
2022-10-24T17:15:12.108Z,15.73
2022-10-24T17:18:14.196Z,14.95
2022-10-24T17:21:17.674Z,17.08
2022-10-24T17:24:25.770Z,16.05
2022-10-24T17:27:28.114Z,14.38
2022-10-24T17:30:30.867Z,15.38
2022-10-24T17:33:36.242Z,15.55
2022-10-24T17:36:43.094Z,13.43
2022-10-24T17:39:59.256Z,13.20
2022-10-24T17:43:03.241Z,14.57
2022-10-24T17:46:05.514Z,13.18
2022-10-24T17:49:10.701Z,12.85
2022-10-24T17:52:17.717Z,14.95
2022-10-24T17:58:51.259Z,13.90
2022-10-24T18:01:53.285Z,15.13
2022-10-24T18:04:55.514Z,13.43
2022-10-24T18:07:58.177Z,15.57
2022-10-24T18:11:02.555Z,16.30
2022-10-24T18:14:04.670Z,16.23
2022-10-24T18:17:06.858Z,13.95
2022-10-24T18:20:09.796Z,15.25
2022-10-24T18:23:11.887Z,15.05
2022-10-24T18:26:19.312Z,13.63
2022-10-24T18:29:21.299Z,12.52
2022-10-24T18:32:23.500Z,15.68
2022-10-24T18:35:27.543Z,12.65
2022-10-24T18:38:32.600Z,13.35
2022-10-24T18:41:42.583Z,12.82
2022-10-24T18:44:50.885Z,14.35
2022-10-24T18:50:55.423Z,12.35
2022-10-24T18:54:04.022Z,14.52
2022-10-24T19:00:29.559Z,13.63
2022-10-24T19:03:37.152Z,14.43
2022-10-24T19:06:41.168Z,15.57
2022-10-24T19:09:43.961Z,13.85
2022-10-24T19:12:46.633Z,15.15
2022-10-24T19:16:05.519Z,15.68
2022-10-24T19:19:09.355Z,12.43
2022-10-24T19:22:11.404Z,15.98
2022-10-24T19:25:15.628Z,14.00
2022-10-24T19:28:20.104Z,15.48
2022-10-24T19:31:23.530Z,13.50
2022-10-24T19:34:27.000Z,15.40
2022-10-24T19:37:29.036Z,14.80
2022-10-24T19:40:31.183Z,15.10
2022-10-24T19:43:33.238Z,15.48
2022-10-24T19:46:35.597Z,14.38
2022-10-24T19:49:39.280Z,15.00
2022-10-24T19:52:41.420Z,15.88
2022-10-24T19:55:44.313Z,14.13
2022-10-24T19:58:46.891Z,15.25
2022-10-24T20:01:49.453Z,15.02
2022-10-24T20:04:52.355Z,14.90
2022-10-24T20:07:54.344Z,16.05
2022-10-24T20:10:56.462Z,14.45
2022-10-24T20:13:58.725Z,15.60
2022-10-24T20:17:01.136Z,15.90
2022-10-24T20:20:05.081Z,18.20
2022-10-24T20:23:07.115Z,16.70
2022-10-24T20:26:18.265Z,17.83
2022-10-24T20:29:20.367Z,16.10
2022-10-24T20:32:22.408Z,15.15
2022-10-24T20:38:28.791Z,16.00
2022-10-24T20:41:31.010Z,17.38
2022-10-24T20:44:33.152Z,17.88
2022-10-24T20:47:36.397Z,17.73
2022-10-24T20:50:38.342Z,18.60
2022-10-24T20:53:41.787Z,17.77
2022-10-24T20:56:46.884Z,17.85
2022-10-24T20:59:49.006Z,18.60
2022-10-24T21:02:51.978Z,19.80
2022-10-24T21:05:54.017Z,19.30
2022-10-24T21:08:58.616Z,17.90
2022-10-24T21:12:01.048Z,17.83
2022-10-24T21:15:03.286Z,15.80
2022-10-24T21:18:05.998Z,14.70
2022-10-24T21:21:13.312Z,15.90
2022-10-24T21:24:18.213Z,13.07
2022-10-24T21:27:20.581Z,14.65
2022-10-24T21:30:22.775Z,14.27
2022-10-24T21:33:24.866Z,14.10
2022-10-24T21:36:26.943Z,13.68
2022-10-24T21:39:28.848Z,12.57
2022-10-24T21:42:33.344Z,13.93
2022-10-24T21:45:35.630Z,12.48
2022-10-24T21:48:38.191Z,13.23
2022-10-24T21:51:42.935Z,12.32
2022-10-24T21:54:44.960Z,10.88
2022-10-24T21:57:46.896Z,13.00
2022-10-24T22:00:48.998Z,11.18
2022-10-24T22:03:50.957Z,11.18
2022-10-24T22:06:53.662Z,12.18
2022-10-24T22:09:55.701Z,11.13
2022-10-24T22:12:57.713Z,11.55
2022-10-24T22:15:59.887Z,11.35
2022-10-24T22:19:04.554Z,12.88
2022-10-24T22:22:06.662Z,13.48
2022-10-24T22:25:08.930Z,11.98
2022-10-24T22:28:11.599Z,14.55
2022-10-24T22:31:14.924Z,11.60
2022-10-24T22:34:26.004Z,14.05
2022-10-24T22:37:30.908Z,16.52
2022-10-24T22:40:33.374Z,14.52
2022-10-24T22:43:35.786Z,12.88
2022-10-24T22:47:15.973Z,14.90
2022-10-24T22:53:27.440Z,14.38
2022-10-24T22:56:33.605Z,13.88
2022-10-24T22:59:36.187Z,14.65
2022-10-24T23:02:44.880Z,12.52
2022-10-24T23:06:12.898Z,13.52
2022-10-24T23:09:15.378Z,13.52
2022-10-24T23:12:19.910Z,12.70
2022-10-24T23:15:22.509Z,11.05
2022-10-24T23:18:24.677Z,12.35
2022-10-24T23:21:55.170Z,13.45
2022-10-24T23:24:59.710Z,12.10
2022-10-24T23:28:24.320Z,10.48
2022-10-24T23:31:26.660Z,9.88
2022-10-24T23:34:29.129Z,9.45
2022-10-24T23:37:33.435Z,10.38
2022-10-24T23:40:37.316Z,10.30
2022-10-24T23:43:39.681Z,10.65
2022-10-24T23:46:46.938Z,10.00
2022-10-24T23:50:02.841Z,11.23
2022-10-24T23:53:35.625Z,9.18
2022-10-24T23:56:38.305Z,10.50
2022-10-24T23:59:40.321Z,10.48
